Time;durP1;ratioP1;P1;durP2;ratioP2;P2;SDS_P1;SDS_P2;PMS_P1;PMS_P2;Temp;Humidity;BMP_temperature;BMP_pressure;BME280_temperature;BME280_humidity;BME280_pressure;Samples;Min_cycle;Max_cycle;Signal;HPM_P1;HPM_P2
2022/05/31 00:00:39;;;;;;;5.42;4.92;;;;;;;22.42;62.62;99731.63;1796732;77;21033;-66
2022/05/31 00:03:06;;;;;;;5.72;4.75;;;;;;;22.42;62.59;99725.41;1808177;77;21330;-65
2022/05/31 00:05:34;;;;;;;5.42;4.92;;;;;;;22.41;62.53;99723.24;1805211;78;21077;-67
2022/05/31 00:08:00;;;;;;;5.85;4.72;;;;;;;22.40;62.50;99718.88;1814045;77;21046;-65
2022/05/31 00:10:27;;;;;;;7.12;5.22;;;;;;;22.39;62.45;99717.26;1812632;77;21124;-66
2022/05/31 00:12:54;;;;;;;8.25;5.58;;;;;;;22.39;62.40;99710.49;1812241;78;21192;-66
2022/05/31 00:15:21;;;;;;;5.28;4.72;;;;;;;22.37;62.41;99712.63;1806305;77;21056;-66
2022/05/31 00:17:47;;;;;;;7.15;5.25;;;;;;;22.37;62.34;99718.04;1804528;79;21030;-67
2022/05/31 00:20:14;;;;;;;5.87;5.00;;;;;;;22.37;62.33;99728.86;1811020;77;21028;-66
2022/05/31 00:22:42;;;;;;;6.10;5.12;;;;;;;22.36;62.32;99731.27;1809652;77;21164;-66
2022/05/31 00:25:09;;;;;;;6.15;5.15;;;;;;;22.36;62.30;99734.79;1824628;77;21117;-67
2022/05/31 00:27:36;;;;;;;5.92;4.58;;;;;;;22.34;62.30;99735.57;1817432;77;21038;-66
2022/05/31 00:30:03;;;;;;;11.78;5.03;;;;;;;22.34;62.25;99736.92;1824856;78;21009;-66
2022/05/31 00:32:33;;;;;;;6.65;5.20;;;;;;;22.34;62.14;99744.23;1813857;77;21040;-66
2022/05/31 00:35:11;;;;;;;6.47;4.85;;;;;;;22.34;62.17;99745.04;1820564;78;21037;-67
2022/05/31 00:37:38;;;;;;;5.92;4.60;;;;;;;22.35;62.16;99745.34;1817944;77;21085;-66
2022/05/31 00:40:07;;;;;;;6.33;4.72;;;;;;;22.34;62.10;99733.41;1817211;77;21021;-66
2022/05/31 00:42:56;;;;;;;6.87;5.45;;;;;;;22.34;62.11;99738.81;1802599;78;20993;-66
2022/05/31 00:45:29;;;;;;;6.60;4.60;;;;;;;22.33;62.06;99737.19;1801288;77;21040;-66
2022/05/31 00:47:56;;;;;;;6.83;5.03;;;;;;;22.31;62.06;99741.49;1802570;77;21048;-66
2022/05/31 00:50:28;;;;;;;5.40;4.47;;;;;;;22.31;62.07;99732.53;1809535;77;21106;-66
2022/05/31 00:52:59;;;;;;;7.10;4.72;;;;;;;22.31;62.00;99724.41;1822284;78;21037;-66
2022/05/31 00:55:32;;;;;;;6.47;4.22;;;;;;;22.30;62.01;99725.50;1820646;77;21092;-67
2022/05/31 00:58:11;;;;;;;5.80;5.00;;;;;;;22.29;61.97;99726.55;1805711;77;21442;-66
2022/05/31 01:00:38;;;;;;;5.17;4.65;;;;;;;22.29;61.79;99736.02;1816382;77;21068;-66
2022/05/31 01:03:05;;;;;;;5.50;4.85;;;;;;;22.28;61.65;99738.45;1818339;78;21121;-67
2022/05/31 01:05:32;;;;;;;4.75;4.35;;;;;;;22.27;61.53;99739.50;1814610;77;21033;-66
2022/05/31 01:07:58;;;;;;;6.45;5.05;;;;;;;22.27;61.54;99744.41;1822069;77;21583;-66
2022/05/31 01:10:26;;;;;;;5.97;4.67;;;;;;;22.27;61.45;99741.70;1812281;78;21122;-66
2022/05/31 01:13:07;;;;;;;5.20;4.70;;;;;;;22.27;61.41;99751.67;1796497;78;21041;-66
2022/05/31 01:16:06;;;;;;;6.00;4.28;;;;;;;22.26;61.52;99756.81;1826510;77;21234;-67
2022/05/31 01:18:51;;;;;;;4.95;4.33;;;;;;;22.25;61.48;99752.45;1821409;77;21145;-66
2022/05/31 01:21:22;;;;;;;4.95;4.47;;;;;;;22.24;61.50;99752.16;1814368;77;21032;-67
2022/05/31 01:24:08;;;;;;;6.78;5.40;;;;;;;22.23;61.54;99756.72;1808590;77;21009;-66
2022/05/31 01:26:55;;;;;;;5.20;4.70;;;;;;;22.20;61.56;99757.23;1806337;77;21541;-67
2022/05/31 01:29:25;;;;;;;7.03;4.47;;;;;;;22.20;61.52;99759.94;1809148;77;21087;-66
2022/05/31 01:32:02;;;;;;;5.17;4.53;;;;;;;22.19;61.52;99756.42;1821776;77;21552;-66
2022/05/31 01:34:59;;;;;;;5.60;4.95;;;;;;;22.18;61.48;99752.59;1808365;77;21064;-67
2022/05/31 01:37:34;;;;;;;7.92;5.55;;;;;;;22.17;61.45;99757.20;1810135;77;21018;-67
2022/05/31 01:40:04;;;;;;;5.97;5.35;;;;;;;22.16;61.43;99758.25;1808991;77;20994;-67
2022/05/31 01:42:43;;;;;;;7.45;5.62;;;;;;;22.16;61.35;99755.54;1802524;78;21130;-67
2022/05/31 01:45:17;;;;;;;6.70;5.87;;;;;;;22.15;61.37;99757.94;1807008;77;21476;-68
2022/05/31 01:47:43;;;;;;;6.20;5.60;;;;;;;22.16;61.34;99764.20;1816757;77;21091;-66
2022/05/31 01:50:15;;;;;;;8.23;5.60;;;;;;;22.14;61.31;99759.56;1819761;77;20990;-67
2022/05/31 01:52:42;;;;;;;8.25;6.47;;;;;;;22.14;61.26;99760.38;1825962;78;20993;-67
2022/05/31 01:55:09;;;;;;;7.83;6.42;;;;;;;22.15;61.26;99762.54;1823984;77;21242;-67
2022/05/31 01:57:36;;;;;;;7.62;5.53;;;;;;;22.15;61.28;99766.60;1816941;77;21565;-66
2022/05/31 02:00:10;;;;;;;9.85;6.65;;;;;;;22.14;61.31;99763.63;1813667;77;21049;-66
2022/05/31 02:02:49;;;;;;;7.22;6.50;;;;;;;22.15;61.32;99762.54;1823328;78;21029;-67
2022/05/31 02:05:15;;;;;;;6.60;5.92;;;;;;;22.13;61.30;99757.91;1821446;77;21016;-67
2022/05/31 02:07:54;;;;;;;7.95;6.33;;;;;;;22.13;61.33;99760.61;1824647;77;21017;-66
2022/05/31 02:10:21;;;;;;;7.87;6.40;;;;;;;22.13;61.32;99766.02;1820517;77;21025;-67
2022/05/31 02:12:48;;;;;;;8.35;5.95;;;;;;;22.13;61.33;99766.02;1825032;78;21116;-67
2022/05/31 02:15:18;;;;;;;11.22;6.28;;;;;;;22.12;61.36;99771.97;1823337;77;21096;-65
2022/05/31 02:17:46;;;;;;;6.80;6.03;;;;;;;22.12;61.36;99776.58;1799506;78;21005;-65
2022/05/31 02:20:15;;;;;;;7.40;6.37;;;;;;;22.12;61.38;99776.03;1817139;77;21103;-66
2022/05/31 02:22:41;;;;;;;8.30;6.08;;;;;;;22.10;61.45;99768.69;1821188;77;21110;-66
2022/05/31 02:25:09;;;;;;;6.65;5.67;;;;;;;22.10;61.46;99773.30;1808896;78;21028;-66
2022/05/31 02:27:37;;;;;;;6.90;5.67;;;;;;;22.10;61.45;99773.30;1820264;78;21017;-67
2022/05/31 02:30:05;;;;;;;8.28;6.00;;;;;;;22.09;61.49;99769.75;1822049;77;21025;-67
2022/05/31 02:32:31;;;;;;;7.05;6.35;;;;;;;22.10;61.55;99776.00;1819952;77;21623;-67
2022/05/31 02:34:59;;;;;;;7.37;6.67;;;;;;;22.09;61.57;99773.80;1806237;77;21048;-66
2022/05/31 02:37:26;;;;;;;8.68;6.78;;;;;;;22.10;61.61;99774.64;1810457;77;21584;-66
2022/05/31 02:39:52;;;;;;;7.08;5.75;;;;;;;22.08;61.65;99770.83;1811443;77;21316;-65
2022/05/31 02:42:19;;;;;;;7.05;6.10;;;;;;;22.07;61.70;99774.58;1813384;78;21076;-65
2022/05/31 02:44:46;;;;;;;7.67;5.72;;;;;;;22.07;61.70;99769.17;1820759;77;21199;-65
2022/05/31 02:47:14;;;;;;;9.30;5.55;;;;;;;22.07;61.76;99766.47;1809846;77;21512;-65
2022/05/31 02:49:44;;;;;;;7.42;6.25;;;;;;;22.05;61.78;99769.95;1823668;78;21462;-66
2022/05/31 02:52:11;;;;;;;9.08;5.75;;;;;;;22.04;61.81;99768.32;1824475;77;21530;-65
2022/05/31 02:54:37;;;;;;;6.55;5.95;;;;;;;22.06;61.86;99773.46;1824371;77;20990;-66
2022/05/31 02:57:14;;;;;;;6.80;6.15;;;;;;;22.04;61.88;99771.02;1815252;77;21560;-66
2022/05/31 02:59:46;;;;;;;9.00;6.55;;;;;;;22.05;61.90;99771.84;1764029;78;21520;-67
2022/05/31 03:02:31;;;;;;;8.35;6.10;;;;;;;22.04;61.95;99780.49;1819333;77;21533;-66
2022/05/31 03:05:16;;;;;;;5.70;5.20;;;;;;;22.03;61.97;99786.95;1817636;77;21100;-66
2022/05/31 03:08:02;;;;;;;6.70;5.42;;;;;;;22.03;61.99;99790.20;1824241;78;21088;-67
2022/05/31 03:10:34;;;;;;;7.97;5.35;;;;;;;22.03;61.99;99790.20;1825964;78;21327;-66
2022/05/31 03:13:01;;;;;;;6.00;5.40;;;;;;;22.03;62.05;99785.59;1824486;78;21014;-66
2022/05/31 03:15:29;;;;;;;8.53;6.30;;;;;;;22.04;62.07;99792.66;1803745;77;21521;-66
2022/05/31 03:18:06;;;;;;;5.97;5.37;;;;;;;22.05;62.06;99793.48;1802868;78;21273;-66
2022/05/31 03:20:50;;;;;;;5.70;5.17;;;;;;;22.04;62.08;99788.61;1801320;77;21004;-65
2022/05/31 03:23:31;;;;;;;6.67;6.03;;;;;;;22.05;62.12;99788.88;1816522;77;22126;-67
2022/05/31 03:26:01;;;;;;;6.85;5.40;;;;;;;22.04;62.13;99783.20;1803746;77;21037;-66
2022/05/31 03:28:28;;;;;;;5.78;5.25;;;;;;;22.05;62.16;99795.64;1820841;77;21017;-67
2022/05/31 03:30:55;;;;;;;6.65;5.92;;;;;;;22.06;62.21;99791.05;1810928;78;21549;-66
2022/05/31 03:33:22;;;;;;;8.05;5.75;;;;;;;22.04;62.25;99795.87;1818201;77;21033;-66
2022/05/31 03:35:48;;;;;;;6.20;5.60;;;;;;;22.04;62.26;99804.84;1804125;77;22213;-66
2022/05/31 03:38:16;;;;;;;6.25;5.65;;;;;;;22.04;62.27;99810.75;1814916;77;21521;-66
2022/05/31 03:40:56;;;;;;;6.40;5.33;;;;;;;22.04;62.30;99810.25;1821626;77;21095;-66
2022/05/31 03:43:31;;;;;;;6.42;5.83;;;;;;;22.05;62.32;99815.93;1814965;77;21012;-66
2022/05/31 03:46:15;;;;;;;6.15;5.65;;;;;;;22.05;62.32;99811.88;1743095;79;21067;-67
2022/05/31 03:48:53;;;;;;;5.50;4.85;;;;;;;22.04;62.29;99806.19;1801247;77;21340;-66
2022/05/31 03:51:20;;;;;;;6.45;5.75;;;;;;;22.04;62.34;99810.25;1821989;77;21534;-67
2022/05/31 03:53:47;;;;;;;6.20;5.65;;;;;;;22.03;62.36;99809.95;1807441;78;21065;-66
2022/05/31 03:56:15;;;;;;;6.33;5.72;;;;;;;22.05;62.32;99815.12;1824803;77;21706;-66
2022/05/31 03:58:42;;;;;;;6.45;5.75;;;;;;;22.04;62.34;99813.46;1818779;77;21123;-66
2022/05/31 04:01:11;;;;;;;6.42;5.83;;;;;;;22.05;62.34;99817.28;1808345;77;21159;-67
2022/05/31 04:03:38;;;;;;;5.92;5.37;;;;;;;22.04;62.34;99817.52;1814885;77;21024;-67
2022/05/31 04:06:05;;;;;;;6.03;5.53;;;;;;;22.06;62.31;99823.50;1809044;77;21535;-67
2022/05/31 04:08:33;;;;;;;6.25;5.45;;;;;;;22.06;62.32;99828.41;1777190;79;20977;-67
2022/05/31 04:11:01;;;;;;;5.75;5.25;;;;;;;22.06;62.32;99827.56;1819260;78;21037;-68
2022/05/31 04:13:28;;;;;;;7.33;6.05;;;;;;;22.08;62.23;99835.75;1823067;77;22188;-66
2022/05/31 04:16:15;;;;;;;6.17;5.67;;;;;;;22.09;62.19;99841.97;1821852;77;21178;-67
2022/05/31 04:18:44;;;;;;;6.10;5.42;;;;;;;22.08;62.17;99847.92;1824995;77;21021;-67
2022/05/31 04:21:13;;;;;;;5.47;4.97;;;;;;;22.08;62.17;99846.56;1742970;80;21057;-66
2022/05/31 04:23:58;;;;;;;8.43;5.83;;;;;;;22.08;62.13;99847.08;1765316;80;21037;-66
2022/05/31 04:26:42;;;;;;;6.28;5.70;;;;;;;22.08;62.12;99845.72;1763486;80;21226;-66
2022/05/31 04:29:28;;;;;;;6.62;6.03;;;;;;;22.06;62.12;99844.64;1756800;79;21045;-67
2022/05/31 04:32:09;;;;;;;8.05;6.03;;;;;;;22.07;62.14;99847.61;1756971;79;21049;-66
2022/05/31 04:34:39;;;;;;;5.87;5.37;;;;;;;22.06;62.13;99853.27;1769004;80;22355;-66
2022/05/31 04:39:52;;;;;;;6.42;5.70;;;;;;;22.09;62.21;99847.38;1870120;76;22374;-66
2022/05/31 04:42:20;;;;;;;6.87;5.95;;;;;;;22.03;62.46;99853.22;1817177;77;20986;-66
2022/05/31 04:44:47;;;;;;;8.20;6.28;;;;;;;22.04;62.60;99860.80;1832928;78;22120;-66
2022/05/31 04:47:14;;;;;;;6.95;6.05;;;;;;;22.05;62.59;99866.52;1825981;78;21001;-66
2022/05/31 04:49:42;;;;;;;6.92;6.03;;;;;;;22.05;62.54;99875.44;1825182;77;21595;-66
2022/05/31 04:52:08;;;;;;;6.70;6.10;;;;;;;22.06;62.49;99881.16;1831253;78;21006;-67
2022/05/31 04:54:37;;;;;;;6.58;5.78;;;;;;;22.07;62.37;99886.84;1818188;77;21052;-68
2022/05/31 04:57:13;;;;;;;6.78;6.17;;;;;;;22.06;62.40;99887.92;1826010;78;21652;-66
2022/05/31 04:59:40;;;;;;;9.75;7.67;;;;;;;22.08;62.50;99893.91;1812787;78;21081;-68
2022/05/31 05:02:07;;;;;;;9.95;7.25;;;;;;;22.08;62.81;99891.20;1826994;77;20981;-66
2022/05/31 05:04:37;;;;;;;8.68;7.12;;;;;;;22.10;63.09;99895.03;1800048;78;20954;-67
2022/05/31 05:07:03;;;;;;;9.28;6.83;;;;;;;22.11;63.23;99898.82;1825312;78;22023;-68
2022/05/31 05:09:30;;;;;;;7.83;6.97;;;;;;;22.12;63.32;99901.02;1826327;78;21166;-67
2022/05/31 05:12:04;;;;;;;12.18;7.15;;;;;;;22.12;63.32;99895.06;1809489;78;20973;-68
2022/05/31 05:14:34;;;;;;;9.65;7.55;;;;;;;22.13;63.30;99897.23;1826583;78;21055;-67
2022/05/31 05:17:03;;;;;;;8.80;6.42;;;;;;;22.13;63.25;99887.22;1812746;78;21523;-68
2022/05/31 05:19:32;;;;;;;9.70;6.55;;;;;;;22.14;63.12;99892.94;1812330;78;21008;-67
2022/05/31 05:21:59;;;;;;;7.70;6.70;;;;;;;22.15;63.01;99895.92;1810108;78;21120;-69
2022/05/31 05:24:26;;;;;;;7.10;6.40;;;;;;;22.16;62.90;99890.00;1818479;78;21593;-67
2022/05/31 05:26:56;;;;;;;7.50;6.80;;;;;;;22.17;62.82;99892.47;1808737;78;21020;-68
2022/05/31 05:32:18;;;;;;;7.03;6.33;;;;;;;22.17;62.61;99891.12;1808409;78;21551;-69
2022/05/31 05:34:54;;;;;;;8.45;6.75;;;;;;;22.18;62.54;99895.99;1796461;78;21541;-71
2022/05/31 05:37:21;;;;;;;7.35;6.60;;;;;;;22.17;62.48;99900.59;1810468;78;21040;-69
2022/05/31 05:39:49;;;;;;;6.92;6.33;;;;;;;22.18;62.41;99900.05;1781035;78;21016;-68
2022/05/31 05:42:27;;;;;;;7.87;7.08;;;;;;;22.17;62.32;99905.16;1818959;78;21024;-68
2022/05/31 05:45:12;;;;;;;6.60;6.00;;;;;;;22.16;62.27;99902.99;1804385;78;21023;-67
2022/05/31 05:47:40;;;;;;;7.58;6.58;;;;;;;22.16;62.19;99906.23;1825345;77;21206;-67
2022/05/31 05:50:08;;;;;;;7.33;6.62;;;;;;;22.16;62.11;99905.70;1822057;77;21064;-67
2022/05/31 05:53:02;;;;;;;7.40;6.75;;;;;;;22.17;62.05;99910.56;1818822;78;21005;-68
2022/05/31 05:55:37;;;;;;;7.55;6.85;;;;;;;22.18;62.00;99914.93;1786194;78;21064;-69
2022/05/31 05:58:23;;;;;;;6.97;6.25;;;;;;;22.17;61.97;99915.47;1822825;78;21243;-69
2022/05/31 06:01:36;;;;;;;7.70;6.83;;;;;;;22.17;61.94;99916.83;1818825;78;21070;-69
2022/05/31 06:04:28;;;;;;;8.58;6.78;;;;;;;22.18;61.86;99916.28;1799076;78;21009;-69
2022/05/31 06:07:18;;;;;;;7.60;6.97;;;;;;;22.17;61.83;99908.70;1810585;78;21013;-68
2022/05/31 06:09:52;;;;;;;7.47;6.80;;;;;;;22.17;61.75;99903.80;1823182;78;21207;-67
2022/05/31 06:12:23;;;;;;;7.20;6.50;;;;;;;22.18;61.72;99914.39;1812427;78;21063;-68
2022/05/31 06:14:57;;;;;;;8.60;6.67;;;;;;;22.18;61.71;99923.05;1821723;78;21124;-68
2022/05/31 06:17:31;;;;;;;8.88;7.97;;;;;;;22.18;61.68;99931.16;1822950;78;21068;-68
2022/05/31 06:20:00;;;;;;;7.58;6.87;;;;;;;22.19;61.70;99934.14;1822598;78;21013;-70
2022/05/31 06:22:26;;;;;;;6.85;6.35;;;;;;;22.21;61.60;99950.14;1811920;78;21037;-68
2022/05/31 06:24:57;;;;;;;6.87;6.33;;;;;;;22.20;61.54;99946.63;1754244;80;21529;-68
2022/05/31 06:27:27;;;;;;;6.90;6.22;;;;;;;22.21;61.51;99948.25;1739743;80;21120;-68
2022/05/31 06:29:54;;;;;;;7.37;6.30;;;;;;;22.22;61.43;99945.04;1758437;80;21017;-68
2022/05/31 06:32:20;;;;;;;7.40;6.53;;;;;;;22.24;61.40;99953.20;1774619;80;21115;-67
2022/05/31 06:34:47;;;;;;;7.67;6.97;;;;;;;22.25;61.34;99959.45;1767067;80;21533;-68
2022/05/31 06:37:22;;;;;;;7.10;6.50;;;;;;;22.26;61.34;99966.52;1765815;80;21081;-67
2022/05/31 06:39:49;;;;;;;7.15;6.47;;;;;;;22.26;61.29;99967.34;1764230;80;21749;-68
2022/05/31 06:42:23;;;;;;;7.10;6.40;;;;;;;22.26;61.27;99970.05;1759626;81;21521;-69
2022/05/31 06:45:10;;;;;;;8.00;7.20;;;;;;;22.27;61.22;99973.56;1756654;81;21112;-67
2022/05/31 06:47:54;;;;;;;7.42;6.83;;;;;;;22.28;61.22;99975.23;1764072;81;21089;-69
2022/05/31 06:50:39;;;;;;;8.25;7.30;;;;;;;22.28;61.13;99980.64;1764450;81;21097;-69
2022/05/31 06:58:45;;;;;;;7.15;6.47;;;;;;;22.28;61.09;99979.28;1744019;81;21050;-70
2022/05/31 07:01:11;;;;;;;7.62;6.92;;;;;;;22.28;61.14;99973.88;1756247;80;21112;-70
2022/05/31 07:03:39;;;;;;;6.33;5.80;;;;;;;22.29;61.27;99971.44;1752000;80;21544;-71
2022/05/31 07:06:05;;;;;;;7.67;6.15;;;;;;;22.30;61.27;99973.10;1755782;80;21978;-69
2022/05/31 07:08:32;;;;;;;6.83;6.33;;;;;;;22.31;61.25;99974.73;1755507;80;21574;-69
2022/05/31 07:11:00;;;;;;;7.05;6.37;;;;;;;22.33;61.27;99976.16;1751804;80;21034;-71
2022/05/31 07:13:48;;;;;;;7.37;6.50;;;;;;;22.34;61.09;99983.20;1632782;86;21050;-70
2022/05/31 07:16:20;;;;;;;7.47;6.50;;;;;;;22.38;60.93;99991.66;1632940;86;21101;-70
2022/05/31 07:18:47;;;;;;;6.90;6.22;;;;;;;22.38;60.92;99988.41;1689796;79;21146;-70
2022/05/31 07:21:14;;;;;;;7.62;7.03;;;;;;;22.42;60.82;99992.01;1760717;79;21026;-69
2022/05/31 07:23:41;;;;;;;6.72;6.12;;;;;;;22.44;60.60;99992.59;1751731;79;21056;-70
2022/05/31 07:26:12;;;;;;;7.15;5.97;;;;;;;22.44;60.56;99994.75;1777826;79;21082;-71
2022/05/31 07:28:39;;;;;;;6.70;6.10;;;;;;;22.46;60.39;99992.63;1765967;79;21591;-68
2022/05/31 07:31:07;;;;;;;6.47;5.87;;;;;;;22.49;60.24;99992.70;1779381;79;21141;-68
2022/05/31 07:33:36;;;;;;;6.28;5.85;;;;;;;22.51;60.10;100005.46;1768598;81;21057;-70
2022/05/31 07:36:05;;;;;;;7.00;5.70;;;;;;;22.51;59.90;100006.81;1740587;81;21092;-69
2022/05/31 07:38:35;;;;;;;6.45;5.85;;;;;;;22.51;59.81;100004.92;1760795;79;21046;-70
2022/05/31 07:41:02;;;;;;;7.75;6.00;;;;;;;22.53;59.73;100016.87;1810048;77;21507;-70
2022/05/31 07:43:29;;;;;;;6.97;5.35;;;;;;;22.52;59.62;100018.77;1812527;77;21076;-66
2022/05/31 07:46:10;;;;;;;6.28;5.55;;;;;;;22.53;59.57;100030.41;1807057;77;21021;-65
2022/05/31 07:48:37;;;;;;;10.10;7.42;;;;;;;22.55;59.47;100026.92;1811652;77;21080;-66
2022/05/31 07:51:07;;;;;;;13.38;9.60;;;;;;;22.56;59.51;100032.11;1810917;77;20998;-65
2022/05/31 07:53:52;;;;;;;16.55;9.65;;;;;;;22.57;59.48;100027.51;1804884;77;21021;-72
2022/05/31 07:56:37;;;;;;;14.75;8.88;;;;;;;22.58;59.59;100027.27;1827377;77;21111;-67
2022/05/31 07:59:08;;;;;;;15.98;8.63;;;;;;;22.62;59.70;100030.83;1768874;77;21120;-67
2022/05/31 08:01:37;;;;;;;13.48;8.40;;;;;;;22.64;59.50;100030.06;1810575;78;21037;-72
2022/05/31 08:04:06;;;;;;;12.60;8.38;;;;;;;22.67;59.63;100036.36;1812920;77;21036;-71
2022/05/31 08:06:34;;;;;;;11.28;7.75;;;;;;;22.70;59.57;100035.35;1810090;77;21014;-70
2022/05/31 08:09:00;;;;;;;9.48;7.87;;;;;;;22.75;59.34;100041.39;1794968;77;21118;-70
2022/05/31 08:11:30;;;;;;;16.90;7.58;;;;;;;22.76;58.97;100041.70;1782633;79;21462;-65
2022/05/31 08:13:57;;;;;;;10.35;7.03;;;;;;;22.77;58.99;100043.32;1801779;77;21033;-63
2022/05/31 08:16:26;;;;;;;11.75;7.20;;;;;;;22.81;59.17;100045.83;1812403;77;22243;-67
2022/05/31 08:18:55;;;;;;;9.58;6.87;;;;;;;22.84;58.89;100052.14;1799042;77;20997;-71
2022/05/31 08:21:28;;;;;;;10.80;6.83;;;;;;;22.86;58.51;100053.25;1796473;77;21232;-74
2022/05/31 08:23:57;;;;;;;10.68;6.10;;;;;;;22.87;58.31;100057.08;1795537;77;21064;-69
2022/05/31 08:26:23;;;;;;;8.30;6.45;;;;;;;22.85;58.16;100055.66;1818430;77;21060;-69
2022/05/31 08:28:50;;;;;;;8.15;6.62;;;;;;;22.84;58.16;100054.03;1820871;77;20999;-69
2022/05/31 08:31:23;;;;;;;7.70;6.08;;;;;;;22.81;58.28;100053.95;1789429;77;22077;-69
2022/05/31 08:33:50;;;;;;;6.97;6.28;;;;;;;22.80;58.66;100063.70;1802962;77;21222;-71
2022/05/31 08:36:16;;;;;;;8.88;6.12;;;;;;;22.80;58.80;100075.35;1805659;77;21024;-68
2022/05/31 08:38:43;;;;;;;9.25;6.45;;;;;;;22.80;58.68;100084.83;1805067;77;21013;-65
2022/05/31 08:41:31;;;;;;;8.93;6.55;;;;;;;22.79;58.76;100084.52;1817400;77;21001;-73
2022/05/31 08:44:02;;;;;;;6.72;6.00;;;;;;;22.78;59.05;100094.55;1803102;78;21031;-74
2022/05/31 08:46:52;;;;;;;5.65;5.15;;;;;;;22.79;59.05;100108.90;1817783;77;21966;-71
2022/05/31 08:52:35;;;;;;;6.40;5.40;;;;;;;22.74;58.80;100125.06;1815183;77;21084;-74
2022/05/31 08:57:59;;;;;;;6.35;5.80;;;;;;;22.68;59.01;100098.95;1820110;78;21069;-73
2022/05/31 09:00:30;;;;;;;8.25;5.10;;;;;;;22.67;58.94;100127.08;1794933;77;21974;-75
2022/05/31 09:03:11;;;;;;;5.42;4.92;;;;;;;22.64;58.59;100133.80;1816274;77;21025;-74
2022/05/31 09:06:00;;;;;;;7.50;5.03;;;;;;;22.61;58.69;100115.84;1810670;78;21510;-73
2022/05/31 09:08:53;;;;;;;5.22;4.65;;;;;;;22.57;58.72;100080.30;1821837;78;21091;-73
2022/05/31 09:11:32;;;;;;;4.90;4.33;;;;;;;22.54;58.86;100096.50;1808080;77;21060;-73
2022/05/31 09:14:28;;;;;;;4.30;3.90;;;;;;;22.51;58.51;100105.63;1859754;77;21044;-73
2022/05/31 09:17:14;;;;;;;7.65;4.20;;;;;;;22.46;58.64;100106.86;1816427;77;21012;-74
2022/05/31 09:19:47;;;;;;;4.15;3.77;;;;;;;22.44;58.69;100104.92;1809568;77;20986;-73
2022/05/31 09:22:13;;;;;;;6.20;4.12;;;;;;;22.41;58.67;100109.45;1816220;77;21032;-72
2022/05/31 09:24:45;;;;;;;6.42;3.50;;;;;;;22.41;58.51;100107.58;1821846;77;21040;-65
2022/05/31 09:27:24;;;;;;;9.00;3.30;;;;;;;22.35;57.72;100096.36;1822828;77;21058;-66
2022/05/31 09:30:08;;;;;;;5.83;3.08;;;;;;;22.21;57.43;100092.20;1823755;77;21477;-65
2022/05/31 09:32:49;;;;;;;4.90;3.77;;;;;;;21.99;57.73;100076.03;1819760;77;21029;-65
2022/05/31 09:35:42;;;;;;;4.65;3.92;;;;;;;21.71;58.22;100072.68;1808886;78;21019;-66
2022/05/31 09:38:37;;;;;;;6.87;4.05;;;;;;;21.40;58.46;100081.85;1807052;78;21084;-67
2022/05/31 09:41:15;;;;;;;7.58;4.10;;;;;;;21.09;59.05;100107.24;1800322;77;21323;-67
2022/05/31 09:44:06;;;;;;;7.50;3.77;;;;;;;20.97;60.42;100101.25;1806607;77;21013;-66
2022/05/31 09:46:58;;;;;;;4.42;3.92;;;;;;;21.03;61.08;100098.70;1817901;77;21041;-66
2022/05/31 09:49:39;;;;;;;3.52;3.22;;;;;;;21.13;61.67;100106.58;1812011;77;21076;-61
2022/05/31 09:52:20;;;;;;;9.95;3.87;;;;;;;21.25;61.86;100095.81;1804759;77;21107;-65
2022/05/31 09:58:38;;;;;;;4.62;4.12;;;;;;;21.50;61.93;100083.52;1793897;78;21100;-66
2022/05/31 10:01:27;;;;;;;6.90;4.00;;;;;;;21.63;61.89;100100.57;1789819;79;21568;-66
2022/05/31 10:04:11;;;;;;;7.45;4.20;;;;;;;21.73;61.86;100108.42;1809076;79;21016;-68
2022/05/31 10:07:01;;;;;;;4.83;4.17;;;;;;;21.83;61.72;100098.89;1811860;78;21107;-65
2022/05/31 10:09:36;;;;;;;6.42;4.33;;;;;;;21.92;61.46;100090.73;1798443;79;21475;-64
2022/05/31 10:12:24;;;;;;;5.62;4.45;;;;;;;22.00;61.19;100095.81;1796338;77;21744;-67
2022/05/31 10:14:54;;;;;;;4.80;4.40;;;;;;;22.07;61.02;100095.14;1801972;79;20969;-67
2022/05/31 10:17:41;;;;;;;4.47;4.15;;;;;;;22.13;60.51;100106.91;1796807;79;21541;-66
2022/05/31 10:20:24;;;;;;;4.78;4.28;;;;;;;22.17;60.44;100112.14;1809217;78;21053;-67
2022/05/31 10:23:00;;;;;;;4.67;4.27;;;;;;;22.23;60.17;100116.60;1807796;79;21126;-66
2022/05/31 10:25:55;;;;;;;4.40;4.00;;;;;;;22.28;59.85;100101.06;1812723;79;21154;-66
2022/05/31 10:28:53;;;;;;;5.58;4.45;;;;;;;22.31;59.67;100100.06;1780057;78;21323;-67
2022/05/31 10:31:42;;;;;;;7.72;3.90;;;;;;;22.35;59.70;100115.30;1806129;79;20975;-67
2022/05/31 10:34:38;;;;;;;4.53;3.87;;;;;;;22.42;59.45;100108.39;1795601;77;21049;-67
2022/05/31 10:37:10;;;;;;;5.33;4.10;;;;;;;22.45;59.41;100093.86;1802552;79;20989;-67
2022/05/31 10:39:38;;;;;;;6.45;4.17;;;;;;;22.51;59.33;100087.48;1814129;77;21031;-68
2022/05/31 10:42:09;;;;;;;4.42;3.77;;;;;;;22.56;59.28;100086.25;1817342;77;21057;-67
2022/05/31 10:44:44;;;;;;;7.40;3.83;;;;;;;22.62;59.26;100084.48;1806593;77;21080;-67
2022/05/31 10:47:15;;;;;;;5.90;4.10;;;;;;;22.68;59.22;100083.52;1805838;77;20998;-66
2022/05/31 10:49:43;;;;;;;6.97;3.83;;;;;;;22.74;59.15;100102.86;1812443;77;21269;-68
2022/05/31 10:52:33;;;;;;;6.15;4.15;;;;;;;22.80;58.97;100104.33;1804426;77;21042;-67
2022/05/31 10:55:14;;;;;;;4.58;3.98;;;;;;;22.84;58.77;100113.62;1796509;77;21643;-66
2022/05/31 10:58:01;;;;;;;7.40;4.45;;;;;;;22.88;58.74;100113.42;1814642;78;21461;-67
2022/05/31 11:00:54;;;;;;;3.87;3.58;;;;;;;22.91;58.77;100107.53;1803861;78;21001;-68
2022/05/31 11:03:56;;;;;;;4.70;3.50;;;;;;;22.94;58.61;100098.37;1795687;79;21078;-67
2022/05/31 11:07:02;;;;;;;4.47;3.50;;;;;;;22.98;58.58;100102.78;1797769;77;21030;-67
2022/05/31 11:12:43;;;;;;;;;;;;;;;23.03;58.08;100095.33;1740417;79;21052;-68
2022/05/31 11:15:31;;;;;;;3.27;2.98;;;;;;;23.03;58.00;100089.38;1767254;80;20233;-67
2022/05/31 11:18:35;;;;;;;3.22;2.92;;;;;;;23.03;58.18;100105.63;1775228;80;21237;-67
2022/05/31 11:21:52;;;;;;;4.55;3.25;;;;;;;23.03;58.01;100105.63;1826548;77;21070;-67
2022/05/31 11:24:51;;;;;;;3.25;3.02;;;;;;;23.03;57.93;100117.01;1821063;77;21015;-67
2022/05/31 11:27:42;;;;;;;3.15;2.92;;;;;;;23.01;57.92;100106.38;1823152;77;21019;-67
2022/05/31 11:30:31;;;;;;;5.10;3.47;;;;;;;23.04;57.77;100095.61;1823714;77;20996;-67
2022/05/31 11:33:29;;;;;;;3.52;3.22;;;;;;;23.06;57.68;100105.67;1816540;77;21144;-68
2022/05/31 11:36:26;;;;;;;3.35;3.05;;;;;;;23.11;57.72;100103.06;1827805;77;21554;-67
2022/05/31 11:39:42;;;;;;;4.10;2.87;;;;;;;23.15;57.54;100098.80;1800505;79;21590;-66
2022/05/31 11:42:30;;;;;;;4.00;3.00;;;;;;;23.22;57.55;100102.70;1816524;76;21013;-68
2022/05/31 11:45:25;;;;;;;3.75;3.15;;;;;;;23.27;57.68;100100.92;1821817;77;20961;-69
2022/05/31 11:48:14;;;;;;;6.03;3.00;;;;;;;23.34;57.78;100097.53;1799895;77;21122;-67
2022/05/31 11:51:11;;;;;;;5.72;3.08;;;;;;;23.44;57.79;100096.07;1814378;78;21476;-67
2022/05/31 11:54:08;;;;;;;3.08;2.55;;;;;;;23.52;57.74;100097.83;1813316;78;20999;-66
2022/05/31 11:57:03;;;;;;;4.65;3.25;;;;;;;23.60;57.73;100103.39;1810891;77;20987;-65
2022/05/31 11:59:38;;;;;;;4.17;3.30;;;;;;;23.69;57.86;100099.20;1797373;78;21627;-65
2022/05/31 12:02:37;;;;;;;4.83;3.37;;;;;;;23.79;58.06;100100.48;1800566;77;21136;-65
2022/05/31 12:05:15;;;;;;;3.15;2.90;;;;;;;23.86;57.97;100105.22;1800789;77;21097;-64
2022/05/31 12:07:59;;;;;;;3.77;2.90;;;;;;;23.92;57.80;100113.17;1800921;77;21010;-65
2022/05/31 12:10:29;;;;;;;3.52;3.22;;;;;;;23.98;57.55;100112.72;1802146;77;21065;-64
2022/05/31 12:12:57;;;;;;;3.52;2.90;;;;;;;24.03;57.34;100110.61;1798624;77;22265;-63
2022/05/31 12:15:27;;;;;;;3.00;2.80;;;;;;;24.09;56.92;100109.64;1806394;79;21110;-64
2022/05/31 12:18:31;;;;;;;3.62;2.83;;;;;;;24.13;56.66;100117.02;1808354;79;21589;-64
2022/05/31 12:21:30;;;;;;;3.15;2.58;;;;;;;24.19;56.50;100127.97;1806777;78;21061;-65
2022/05/31 12:24:10;;;;;;;3.72;2.72;;;;;;;24.23;56.34;100123.68;1799951;77;21003;-65
2022/05/31 12:27:10;;;;;;;3.33;3.02;;;;;;;24.27;56.12;100125.63;1788640;78;21053;-65
2022/05/31 12:29:51;;;;;;;4.22;2.90;;;;;;;24.31;55.93;100121.89;1808563;77;21462;-65
2022/05/31 12:32:32;;;;;;;5.03;2.72;;;;;;;24.37;55.86;100123.60;1804602;79;20998;-64